Dades meteomassalio
 
Diari Summary for Octubre 23, 2017 Units:  Metric    English   Both
« Previous Day
Next Day »
Diari Semanal Mensual Anual Personalitzat
  Actual: Maxima: Minima: Mijana:
Temperatura: 10.6 °C 12.2 °C 10.6 °C 11.1 °C
Rosada: 5.3 °C 6.5 °C 4.7 °C 5.6 °C
Humitat: 70 % 71 % 67 % 69 %
Velocitat del vent: 16.7 km/h 24.1 km/h 5.6 km/h 15.8 km/h
Racha vent: 16.7 km/h 24.1 km/h - -
Vent:South - - South
Pressio: 1029.0 hPa 1029.7 hPa 1029.0 hPa -
Pluja: 0.0 mm      
Historical Graphs
 
 
Tabular Data for Octubre 23, 2017
Time Temperature Dew Point Pressure Wind Wind Speed Wind Gust Humidity Rainfall Rate (Hourly) solar Conditions
00:03 10.6 °C 4.7 °C 1029.3 hPa SSW 20.4 km/h 20.4 km/h 67 % 0.0 mm 0.0 W/m2 CLR
00:08 10.6 °C 4.7 °C 1029.7 hPa SSW 20.4 km/h 20.4 km/h 67 % 0.0 mm 0.0 W/m2 CLR
00:13 11.7 °C 5.7 °C 1029.3 hPa South 24.1 km/h 24.1 km/h 67 % 0.0 mm 0.0 W/m2 CLR
00:18 11.1 °C 5.4 °C 1029.3 hPa South 18.5 km/h 18.5 km/h 68 % 0.0 mm 0.0 W/m2 CLR
00:23 11.1 °C 5.4 °C 1029.3 hPa SSW 18.5 km/h 18.5 km/h 68 % 0.0 mm 0.0 W/m2 CLR
00:28 11.1 °C 5.4 °C 1029.3 hPa SSE 20.4 km/h 20.4 km/h 68 % 0.0 mm 0.0 W/m2 CLR
00:33 10.6 °C 4.9 °C 1029.3 hPa South 18.5 km/h 18.5 km/h 68 % 0.0 mm 0.0 W/m2 CLR
00:38 10.6 °C 4.9 °C 1029.3 hPa South 18.5 km/h 18.5 km/h 68 % 0.0 mm 0.0 W/m2 CLR
00:43 10.6 °C 4.9 °C 1029.3 hPa South 18.5 km/h 18.5 km/h 68 % 0.0 mm 0.0 W/m2 CLR
00:48 10.6 °C 4.9 °C 1029.3 hPa SSW 16.7 km/h 16.7 km/h 68 % 0.0 mm 0.0 W/m2 CLR
00:53 10.6 °C 4.9 °C 1029.3 hPa South 18.5 km/h 18.5 km/h 68 % 0.0 mm 0.0 W/m2 CLR
00:58 11.1 °C 5.4 °C 1029.3 hPa SE 14.8 km/h 14.8 km/h 68 % 0.0 mm 0.0 W/m2 CLR
01:03 11.7 °C 5.9 °C 1029.7 hPa SSE 5.6 km/h 5.6 km/h 68 % 0.0 mm 0.0 W/m2 CLR
01:08 12.2 °C 6.5 °C 1029.3 hPa SSE 8.0 km/h 8.0 km/h 68 % 0.0 mm 0.0 W/m2 CLR
01:13 12.2 °C 6.5 °C 1029.3 hPa South 9.3 km/h 9.3 km/h 68 % 0.0 mm 0.0 W/m2 CLR
01:18 11.7 °C 6.2 °C 1029.3 hPa SSW 11.1 km/h 11.1 km/h 69 % 0.0 mm 0.0 W/m2 CLR
01:23 11.7 °C 6.2 °C 1029.0 hPa SSW 14.5 km/h 14.5 km/h 69 % 0.0 mm 0.0 W/m2 CLR
01:28 11.1 °C 5.8 °C 1029.0 hPa SSW 18.5 km/h 18.5 km/h 70 % 0.0 mm 0.0 W/m2 CLR
01:33 11.1 °C 5.6 °C 1029.0 hPa SSW 16.7 km/h 16.7 km/h 69 % 0.0 mm 0.0 W/m2 CLR
01:38 11.1 °C 5.6 °C 1029.0 hPa South 18.5 km/h 18.5 km/h 69 % 0.0 mm 0.0 W/m2 CLR
01:43 11.1 °C 5.6 °C 1029.0 hPa South 24.1 km/h 24.1 km/h 69 % 0.0 mm 0.0 W/m2 CLR
01:48 11.7 °C 5.9 °C 1029.0 hPa SE 13.0 km/h 13.0 km/h 68 % 0.0 mm 0.0 W/m2 CLR
01:53 11.7 °C 6.2 °C 1029.0 hPa South 9.3 km/h 9.3 km/h 69 % 0.0 mm 0.0 W/m2 CLR
01:58 11.7 °C 6.4 °C 1029.0 hPa South 16.7 km/h 16.7 km/h 70 % 0.0 mm 0.0 W/m2 CLR
02:03 11.1 °C 5.8 °C 1029.0 hPa South 13.0 km/h 13.0 km/h 70 % 0.0 mm 0.0 W/m2 CLR
02:08 11.1 °C 5.8 °C 1029.0 hPa SSE 7.4 km/h 7.4 km/h 70 % 0.0 mm 0.0 W/m2 CLR
02:13 10.6 °C 5.3 °C 1029.0 hPa South 11.1 km/h 11.1 km/h 70 % 0.0 mm 0.0 W/m2 CLR
02:18 10.6 °C 5.5 °C 1029.0 hPa SSW 14.8 km/h 14.8 km/h 71 % 0.0 mm 0.0 W/m2 CLR
02:23 10.6 °C 5.5 °C 1029.0 hPa SSW 18.5 km/h 18.5 km/h 71 % 0.0 mm 0.0 W/m2 CLR
02:28 10.6 °C 5.3 °C 1029.0 hPa South 16.7 km/h 16.7 km/h 70 % 0.0 mm 0.0 W/m2 CLR
Lo Temps de Massalio
Compliments of Weather Underground - 512 kb